Harnell Park, Minnesota
Current Conditions -  °F | °C
As of 12:55 AM on Thursday 23 Oct 2014 (Local Time) from KDLH Reporting Station
Few Clouds Few Clouds  
Wind Chill: 51°   Ceiling: Unl
Heat Index: 51°   Visibility: 10mi
Dew Point: 36°   Wind: 13mph
Humidity: 56%   Direction: 180°S
Pressure: 29.99"   Gusts: NA
Location:  46.8859°N, 92.4258°W
Report Text: KDLH 230555Z 18011KT 10SM FEW090 11/02 A2999 RMK AO2 SLP163 T01060022 10117 20094 401390039 58014
Loading
Personal Weather Stations






























Interactive Weather Map New forecast layout! Learn more

10-Day Weather Forecast

Advertisements
Track Severe Weather on mobile